sensor_id;sensor_type;location;lat;lon;timestamp;P1;durP1;ratioP1;P2;durP2;ratioP2
21392;SDS011;10857;52.228;21.026;2024-03-25T00:01:41;12.33;;;8.93;;
21392;SDS011;10857;52.228;21.026;2024-03-25T00:04:07;15.63;;;8.80;;
21392;SDS011;10857;52.228;21.026;2024-03-25T00:06:34;11.73;;;8.00;;
21392;SDS011;10857;52.228;21.026;2024-03-25T00:09:01;11.97;;;7.73;;
21392;SDS011;10857;52.228;21.026;2024-03-25T00:11:28;12.07;;;7.80;;
21392;SDS011;10857;52.228;21.026;2024-03-25T00:13:54;15.37;;;8.10;;
21392;SDS011;10857;52.228;21.026;2024-03-25T00:16:21;14.70;;;7.93;;
21392;SDS011;10857;52.228;21.026;2024-03-25T00:18:48;13.33;;;7.50;;
21392;SDS011;10857;52.228;21.026;2024-03-25T00:21:14;11.23;;;7.77;;
21392;SDS011;10857;52.228;21.026;2024-03-25T00:23:40;14.27;;;7.97;;
21392;SDS011;10857;52.228;21.026;2024-03-25T00:26:06;13.43;;;7.97;;
21392;SDS011;10857;52.228;21.026;2024-03-25T00:28:32;14.27;;;8.00;;
21392;SDS011;10857;52.228;21.026;2024-03-25T00:30:58;14.03;;;8.57;;
21392;SDS011;10857;52.228;21.026;2024-03-25T00:33:24;13.57;;;9.20;;
21392;SDS011;10857;52.228;21.026;2024-03-25T00:35:50;14.13;;;9.30;;
21392;SDS011;10857;52.228;21.026;2024-03-25T00:38:18;16.17;;;9.70;;
21392;SDS011;10857;52.228;21.026;2024-03-25T00:40:44;16.80;;;10.80;;
21392;SDS011;10857;52.228;21.026;2024-03-25T00:43:11;15.73;;;10.47;;
21392;SDS011;10857;52.228;21.026;2024-03-25T00:45:37;17.57;;;10.37;;
21392;SDS011;10857;52.228;21.026;2024-03-25T00:48:03;17.07;;;11.13;;
21392;SDS011;10857;52.228;21.026;2024-03-25T00:50:30;17.37;;;11.50;;
21392;SDS011;10857;52.228;21.026;2024-03-25T00:52:56;20.77;;;11.87;;
21392;SDS011;10857;52.228;21.026;2024-03-25T00:55:22;20.67;;;11.97;;
21392;SDS011;10857;52.228;21.026;2024-03-25T00:57:48;19.00;;;11.63;;
21392;SDS011;10857;52.228;21.026;2024-03-25T01:00:14;21.10;;;12.57;;
21392;SDS011;10857;52.228;21.026;2024-03-25T01:02:41;18.93;;;12.33;;
21392;SDS011;10857;52.228;21.026;2024-03-25T01:05:08;21.70;;;12.47;;
21392;SDS011;10857;52.228;21.026;2024-03-25T01:07:34;21.07;;;12.67;;
21392;SDS011;10857;52.228;21.026;2024-03-25T01:10:00;22.43;;;13.23;;
21392;SDS011;10857;52.228;21.026;2024-03-25T01:12:27;23.00;;;13.37;;
21392;SDS011;10857;52.228;21.026;2024-03-25T01:14:53;23.73;;;14.17;;
21392;SDS011;10857;52.228;21.026;2024-03-25T01:17:19;22.63;;;14.23;;
21392;SDS011;10857;52.228;21.026;2024-03-25T01:19:45;28.37;;;14.50;;
21392;SDS011;10857;52.228;21.026;2024-03-25T01:22:11;21.80;;;13.57;;
21392;SDS011;10857;52.228;21.026;2024-03-25T01:24:37;23.60;;;13.90;;
21392;SDS011;10857;52.228;21.026;2024-03-25T01:27:03;24.83;;;14.23;;
21392;SDS011;10857;52.228;21.026;2024-03-25T01:29:29;24.07;;;14.30;;
21392;SDS011;10857;52.228;21.026;2024-03-25T01:31:55;23.90;;;14.47;;
21392;SDS011;10857;52.228;21.026;2024-03-25T01:34:24;25.57;;;14.27;;
21392;SDS011;10857;52.228;21.026;2024-03-25T01:36:51;25.67;;;14.80;;
21392;SDS011;10857;52.228;21.026;2024-03-25T01:39:18;25.40;;;15.47;;
21392;SDS011;10857;52.228;21.026;2024-03-25T01:41:44;27.10;;;15.13;;
21392;SDS011;10857;52.228;21.026;2024-03-25T01:44:10;26.97;;;15.50;;
21392;SDS011;10857;52.228;21.026;2024-03-25T01:46:37;26.90;;;15.63;;
21392;SDS011;10857;52.228;21.026;2024-03-25T01:49:04;28.20;;;15.70;;
21392;SDS011;10857;52.228;21.026;2024-03-25T01:51:32;25.03;;;14.80;;
21392;SDS011;10857;52.228;21.026;2024-03-25T01:53:59;25.63;;;14.97;;
21392;SDS011;10857;52.228;21.026;2024-03-25T01:56:25;25.07;;;15.30;;
21392;SDS011;10857;52.228;21.026;2024-03-25T01:58:53;28.93;;;16.27;;
21392;SDS011;10857;52.228;21.026;2024-03-25T02:01:19;28.43;;;16.03;;
21392;SDS011;10857;52.228;21.026;2024-03-25T02:03:46;30.13;;;16.40;;
21392;SDS011;10857;52.228;21.026;2024-03-25T02:06:13;26.50;;;15.10;;
21392;SDS011;10857;52.228;21.026;2024-03-25T02:08:43;26.97;;;16.33;;
21392;SDS011;10857;52.228;21.026;2024-03-25T02:11:10;29.87;;;16.27;;
21392;SDS011;10857;52.228;21.026;2024-03-25T02:13:37;27.13;;;15.60;;
21392;SDS011;10857;52.228;21.026;2024-03-25T02:16:04;28.57;;;16.57;;
21392;SDS011;10857;52.228;21.026;2024-03-25T02:18:31;31.00;;;15.80;;
21392;SDS011;10857;52.228;21.026;2024-03-25T02:20:58;29.27;;;16.20;;
21392;SDS011;10857;52.228;21.026;2024-03-25T02:23:24;29.43;;;16.40;;
21392;SDS011;10857;52.228;21.026;2024-03-25T02:25:52;28.77;;;15.43;;
21392;SDS011;10857;52.228;21.026;2024-03-25T02:28:18;28.97;;;16.60;;
21392;SDS011;10857;52.228;21.026;2024-03-25T02:30:45;26.93;;;15.30;;
21392;SDS011;10857;52.228;21.026;2024-03-25T02:33:11;30.87;;;16.27;;
21392;SDS011;10857;52.228;21.026;2024-03-25T02:35:37;27.80;;;16.63;;
21392;SDS011;10857;52.228;21.026;2024-03-25T02:38:06;27.43;;;16.60;;
21392;SDS011;10857;52.228;21.026;2024-03-25T02:40:32;31.23;;;16.60;;
21392;SDS011;10857;52.228;21.026;2024-03-25T02:42:59;31.40;;;17.10;;
21392;SDS011;10857;52.228;21.026;2024-03-25T02:45:25;28.93;;;16.90;;
21392;SDS011;10857;52.228;21.026;2024-03-25T02:47:51;32.30;;;17.73;;
21392;SDS011;10857;52.228;21.026;2024-03-25T02:50:17;29.87;;;16.77;;
21392;SDS011;10857;52.228;21.026;2024-03-25T02:52:44;29.00;;;17.03;;
21392;SDS011;10857;52.228;21.026;2024-03-25T02:55:10;30.43;;;17.50;;
21392;SDS011;10857;52.228;21.026;2024-03-25T02:57:36;28.77;;;17.37;;
21392;SDS011;10857;52.228;21.026;2024-03-25T03:00:02;30.00;;;17.13;;
21392;SDS011;10857;52.228;21.026;2024-03-25T03:02:28;30.33;;;17.43;;
21392;SDS011;10857;52.228;21.026;2024-03-25T03:04:54;31.43;;;18.57;;
21392;SDS011;10857;52.228;21.026;2024-03-25T03:07:20;30.53;;;17.97;;
21392;SDS011;10857;52.228;21.026;2024-03-25T03:09:47;30.77;;;17.83;;
21392;SDS011;10857;52.228;21.026;2024-03-25T03:12:12;30.43;;;17.70;;
21392;SDS011;10857;52.228;21.026;2024-03-25T03:14:39;31.73;;;17.77;;
21392;SDS011;10857;52.228;21.026;2024-03-25T03:17:05;32.10;;;18.07;;
21392;SDS011;10857;52.228;21.026;2024-03-25T03:19:31;29.13;;;18.20;;
21392;SDS011;10857;52.228;21.026;2024-03-25T03:21:57;31.27;;;18.17;;
21392;SDS011;10857;52.228;21.026;2024-03-25T03:24:23;32.70;;;17.97;;
21392;SDS011;10857;52.228;21.026;2024-03-25T03:26:49;31.27;;;17.93;;
21392;SDS011;10857;52.228;21.026;2024-03-25T03:29:15;32.17;;;18.03;;
21392;SDS011;10857;52.228;21.026;2024-03-25T03:31:41;31.37;;;18.10;;
21392;SDS011;10857;52.228;21.026;2024-03-25T03:34:08;32.23;;;17.70;;
21392;SDS011;10857;52.228;21.026;2024-03-25T03:36:34;30.97;;;18.00;;
21392;SDS011;10857;52.228;21.026;2024-03-25T03:39:00;31.00;;;18.10;;
21392;SDS011;10857;52.228;21.026;2024-03-25T03:41:26;32.17;;;18.53;;
21392;SDS011;10857;52.228;21.026;2024-03-25T03:43:52;32.03;;;17.77;;
21392;SDS011;10857;52.228;21.026;2024-03-25T03:46:18;32.57;;;18.83;;
21392;SDS011;10857;52.228;21.026;2024-03-25T03:48:44;33.60;;;18.33;;
21392;SDS011;10857;52.228;21.026;2024-03-25T03:51:10;33.67;;;18.50;;
21392;SDS011;10857;52.228;21.026;2024-03-25T03:53:36;33.00;;;18.70;;
21392;SDS011;10857;52.228;21.026;2024-03-25T03:56:03;34.13;;;19.03;;
21392;SDS011;10857;52.228;21.026;2024-03-25T03:58:30;32.43;;;17.73;;
21392;SDS011;10857;52.228;21.026;2024-03-25T04:00:57;31.47;;;18.03;;
21392;SDS011;10857;52.228;21.026;2024-03-25T04:03:23;32.10;;;18.60;;
21392;SDS011;10857;52.228;21.026;2024-03-25T04:05:50;31.30;;;18.63;;
21392;SDS011;10857;52.228;21.026;2024-03-25T04:08:16;33.67;;;18.23;;
21392;SDS011;10857;52.228;21.026;2024-03-25T04:10:42;35.33;;;18.13;;
21392;SDS011;10857;52.228;21.026;2024-03-25T04:13:09;31.60;;;18.37;;
21392;SDS011;10857;52.228;21.026;2024-03-25T04:15:39;29.40;;;18.03;;
21392;SDS011;10857;52.228;21.026;2024-03-25T04:18:07;29.10;;;17.27;;
21392;SDS011;10857;52.228;21.026;2024-03-25T04:20:38;32.67;;;18.03;;
21392;SDS011;10857;52.228;21.026;2024-03-25T04:23:05;33.30;;;18.33;;
21392;SDS011;10857;52.228;21.026;2024-03-25T04:25:33;32.40;;;18.00;;
21392;SDS011;10857;52.228;21.026;2024-03-25T04:28:03;32.63;;;17.47;;
21392;SDS011;10857;52.228;21.026;2024-03-25T04:30:31;31.40;;;17.83;;
21392;SDS011;10857;52.228;21.026;2024-03-25T04:32:58;31.07;;;17.73;;
21392;SDS011;10857;52.228;21.026;2024-03-25T04:35:25;31.90;;;17.67;;
21392;SDS011;10857;52.228;21.026;2024-03-25T04:37:52;29.43;;;17.50;;
21392;SDS011;10857;52.228;21.026;2024-03-25T04:40:18;31.20;;;17.27;;
21392;SDS011;10857;52.228;21.026;2024-03-25T04:42:45;31.77;;;18.77;;
21392;SDS011;10857;52.228;21.026;2024-03-25T04:45:11;35.43;;;19.30;;
21392;SDS011;10857;52.228;21.026;2024-03-25T04:47:37;34.43;;;18.00;;
21392;SDS011;10857;52.228;21.026;2024-03-25T04:50:04;31.90;;;18.00;;
21392;SDS011;10857;52.228;21.026;2024-03-25T04:52:31;31.87;;;17.90;;
21392;SDS011;10857;52.228;21.026;2024-03-25T04:54:57;32.73;;;17.40;;
21392;SDS011;10857;52.228;21.026;2024-03-25T04:57:23;29.53;;;17.27;;
21392;SDS011;10857;52.228;21.026;2024-03-25T04:59:49;31.53;;;17.63;;
21392;SDS011;10857;52.228;21.026;2024-03-25T05:02:15;33.60;;;18.60;;
21392;SDS011;10857;52.228;21.026;2024-03-25T05:04:41;33.17;;;17.50;;
21392;SDS011;10857;52.228;21.026;2024-03-25T05:07:07;30.03;;;17.07;;
21392;SDS011;10857;52.228;21.026;2024-03-25T05:09:33;28.67;;;17.03;;
21392;SDS011;10857;52.228;21.026;2024-03-25T05:11:59;30.73;;;17.87;;
21392;SDS011;10857;52.228;21.026;2024-03-25T05:14:25;31.00;;;17.83;;
21392;SDS011;10857;52.228;21.026;2024-03-25T05:16:51;31.40;;;17.63;;
21392;SDS011;10857;52.228;21.026;2024-03-25T05:19:18;27.87;;;16.53;;
21392;SDS011;10857;52.228;21.026;2024-03-25T05:21:44;34.73;;;17.00;;
21392;SDS011;10857;52.228;21.026;2024-03-25T05:24:11;32.17;;;17.20;;
21392;SDS011;10857;52.228;21.026;2024-03-25T05:26:37;33.30;;;17.10;;
21392;SDS011;10857;52.228;21.026;2024-03-25T05:29:03;29.67;;;16.80;;
21392;SDS011;10857;52.228;21.026;2024-03-25T05:31:29;29.53;;;16.33;;
21392;SDS011;10857;52.228;21.026;2024-03-25T05:33:57;29.97;;;16.37;;
21392;SDS011;10857;52.228;21.026;2024-03-25T05:36:25;27.77;;;16.33;;
21392;SDS011;10857;52.228;21.026;2024-03-25T05:38:51;30.80;;;16.30;;
21392;SDS011;10857;52.228;21.026;2024-03-25T05:41:17;26.70;;;15.17;;
21392;SDS011;10857;52.228;21.026;2024-03-25T05:43:44;27.97;;;15.27;;
21392;SDS011;10857;52.228;21.026;2024-03-25T05:46:10;27.40;;;15.47;;
21392;SDS011;10857;52.228;21.026;2024-03-25T05:48:36;30.37;;;16.00;;
21392;SDS011;10857;52.228;21.026;2024-03-25T05:51:05;26.60;;;15.30;;
21392;SDS011;10857;52.228;21.026;2024-03-25T05:53:34;27.63;;;15.83;;
21392;SDS011;10857;52.228;21.026;2024-03-25T05:56:00;26.83;;;15.33;;
21392;SDS011;10857;52.228;21.026;2024-03-25T05:58:27;28.57;;;14.90;;
21392;SDS011;10857;52.228;21.026;2024-03-25T06:00:53;23.97;;;14.47;;
21392;SDS011;10857;52.228;21.026;2024-03-25T06:03:19;29.63;;;14.97;;
21392;SDS011;10857;52.228;21.026;2024-03-25T06:05:46;24.30;;;13.97;;
21392;SDS011;10857;52.228;21.026;2024-03-25T06:08:13;26.93;;;15.13;;
21392;SDS011;10857;52.228;21.026;2024-03-25T06:10:51;26.47;;;13.80;;
21392;SDS011;10857;52.228;21.026;2024-03-25T06:13:18;26.03;;;14.47;;
21392;SDS011;10857;52.228;21.026;2024-03-25T06:15:44;29.70;;;14.30;;
21392;SDS011;10857;52.228;21.026;2024-03-25T06:18:11;23.50;;;13.90;;
21392;SDS011;10857;52.228;21.026;2024-03-25T06:20:37;22.67;;;13.77;;
21392;SDS011;10857;52.228;21.026;2024-03-25T06:23:04;23.73;;;13.77;;
21392;SDS011;10857;52.228;21.026;2024-03-25T06:25:30;27.33;;;13.33;;
21392;SDS011;10857;52.228;21.026;2024-03-25T06:27:56;24.00;;;13.80;;
21392;SDS011;10857;52.228;21.026;2024-03-25T06:30:23;21.33;;;12.70;;
21392;SDS011;10857;52.228;21.026;2024-03-25T06:33:07;22.73;;;13.10;;
21392;SDS011;10857;52.228;21.026;2024-03-25T06:35:52;21.67;;;12.27;;
21392;SDS011;10857;52.228;21.026;2024-03-25T06:38:18;25.50;;;12.73;;
21392;SDS011;10857;52.228;21.026;2024-03-25T06:40:45;22.98;;;13.73;;
21392;SDS011;10857;52.228;21.026;2024-03-25T06:43:11;26.83;;;13.37;;
21392;SDS011;10857;52.228;21.026;2024-03-25T06:45:37;22.90;;;12.50;;
21392;SDS011;10857;52.228;21.026;2024-03-25T06:48:03;22.07;;;12.53;;
21392;SDS011;10857;52.228;21.026;2024-03-25T06:50:30;26.87;;;12.73;;
21392;SDS011;10857;52.228;21.026;2024-03-25T06:52:56;20.60;;;12.53;;
21392;SDS011;10857;52.228;21.026;2024-03-25T06:55:22;25.10;;;13.00;;
21392;SDS011;10857;52.228;21.026;2024-03-25T06:57:52;20.27;;;12.17;;
21392;SDS011;10857;52.228;21.026;2024-03-25T07:00:19;26.97;;;13.60;;
21392;SDS011;10857;52.228;21.026;2024-03-25T07:02:50;25.27;;;12.50;;
21392;SDS011;10857;52.228;21.026;2024-03-25T07:05:16;22.90;;;13.13;;
21392;SDS011;10857;52.228;21.026;2024-03-25T07:07:42;22.80;;;12.67;;
21392;SDS011;10857;52.228;21.026;2024-03-25T07:10:08;24.90;;;13.27;;
21392;SDS011;10857;52.228;21.026;2024-03-25T07:12:34;22.33;;;12.83;;
21392;SDS011;10857;52.228;21.026;2024-03-25T07:15:00;25.40;;;13.33;;
21392;SDS011;10857;52.228;21.026;2024-03-25T07:17:27;22.33;;;13.20;;
21392;SDS011;10857;52.228;21.026;2024-03-25T07:19:53;21.57;;;13.20;;
21392;SDS011;10857;52.228;21.026;2024-03-25T07:22:19;25.07;;;13.73;;
21392;SDS011;10857;52.228;21.026;2024-03-25T07:24:45;21.47;;;13.00;;
21392;SDS011;10857;52.228;21.026;2024-03-25T07:27:11;20.13;;;12.70;;
21392;SDS011;10857;52.228;21.026;2024-03-25T07:29:38;20.77;;;12.53;;
21392;SDS011;10857;52.228;21.026;2024-03-25T07:32:04;22.47;;;12.90;;
21392;SDS011;10857;52.228;21.026;2024-03-25T07:34:30;23.33;;;13.17;;
21392;SDS011;10857;52.228;21.026;2024-03-25T07:36:56;22.80;;;12.93;;
21392;SDS011;10857;52.228;21.026;2024-03-25T07:39:22;23.03;;;12.23;;
21392;SDS011;10857;52.228;21.026;2024-03-25T07:41:52;23.33;;;13.07;;
21392;SDS011;10857;52.228;21.026;2024-03-25T07:44:19;20.67;;;11.70;;
21392;SDS011;10857;52.228;21.026;2024-03-25T07:46:45;26.07;;;12.73;;
21392;SDS011;10857;52.228;21.026;2024-03-25T07:49:11;21.23;;;11.67;;
21392;SDS011;10857;52.228;21.026;2024-03-25T07:51:37;19.33;;;11.83;;
21392;SDS011;10857;52.228;21.026;2024-03-25T07:54:05;20.27;;;11.30;;
21392;SDS011;10857;52.228;21.026;2024-03-25T07:56:31;20.33;;;12.23;;
21392;SDS011;10857;52.228;21.026;2024-03-25T07:59:02;22.93;;;11.90;;
21392;SDS011;10857;52.228;21.026;2024-03-25T08:01:29;19.67;;;11.30;;
21392;SDS011;10857;52.228;21.026;2024-03-25T08:03:55;19.63;;;11.77;;
21392;SDS011;10857;52.228;21.026;2024-03-25T08:06:21;23.47;;;13.00;;
21392;SDS011;10857;52.228;21.026;2024-03-25T08:08:47;18.93;;;11.93;;
21392;SDS011;10857;52.228;21.026;2024-03-25T08:11:13;20.80;;;10.97;;
21392;SDS011;10857;52.228;21.026;2024-03-25T08:13:40;21.47;;;11.17;;
21392;SDS011;10857;52.228;21.026;2024-03-25T08:16:06;18.13;;;10.20;;
21392;SDS011;10857;52.228;21.026;2024-03-25T08:18:32;16.00;;;10.73;;
21392;SDS011;10857;52.228;21.026;2024-03-25T08:20:58;17.93;;;9.70;;
21392;SDS011;10857;52.228;21.026;2024-03-25T08:23:25;19.33;;;9.73;;
21392;SDS011;10857;52.228;21.026;2024-03-25T08:25:50;18.17;;;9.73;;
21392;SDS011;10857;52.228;21.026;2024-03-25T08:28:17;18.73;;;10.10;;
21392;SDS011;10857;52.228;21.026;2024-03-25T08:30:43;14.33;;;9.20;;
21392;SDS011;10857;52.228;21.026;2024-03-25T08:33:09;14.33;;;9.50;;
21392;SDS011;10857;52.228;21.026;2024-03-25T08:35:35;13.97;;;8.90;;
21392;SDS011;10857;52.228;21.026;2024-03-25T08:38:01;13.40;;;8.20;;
21392;SDS011;10857;52.228;21.026;2024-03-25T08:40:27;16.27;;;9.57;;
21392;SDS011;10857;52.228;21.026;2024-03-25T08:42:53;14.90;;;10.40;;
21392;SDS011;10857;52.228;21.026;2024-03-25T08:45:19;16.00;;;9.90;;
21392;SDS011;10857;52.228;21.026;2024-03-25T08:47:45;13.80;;;9.03;;
21392;SDS011;10857;52.228;21.026;2024-03-25T08:50:11;15.50;;;9.47;;
21392;SDS011;10857;52.228;21.026;2024-03-25T08:52:37;13.33;;;9.13;;
21392;SDS011;10857;52.228;21.026;2024-03-25T08:55:05;16.87;;;9.20;;
21392;SDS011;10857;52.228;21.026;2024-03-25T08:57:32;13.27;;;9.17;;
21392;SDS011;10857;52.228;21.026;2024-03-25T08:59:58;12.60;;;8.43;;
21392;SDS011;10857;52.228;21.026;2024-03-25T09:02:24;12.53;;;8.70;;
21392;SDS011;10857;52.228;21.026;2024-03-25T09:04:50;15.80;;;9.40;;
21392;SDS011;10857;52.228;21.026;2024-03-25T09:07:17;12.63;;;9.13;;
21392;SDS011;10857;52.228;21.026;2024-03-25T09:09:43;14.00;;;8.97;;
21392;SDS011;10857;52.228;21.026;2024-03-25T09:12:27;18.10;;;8.77;;
21392;SDS011;10857;52.228;21.026;2024-03-25T09:14:53;14.60;;;9.00;;
21392;SDS011;10857;52.228;21.026;2024-03-25T09:17:19;14.87;;;8.53;;
21392;SDS011;10857;52.228;21.026;2024-03-25T09:19:48;10.90;;;7.90;;
21392;SDS011;10857;52.228;21.026;2024-03-25T09:22:14;11.87;;;8.10;;
21392;SDS011;10857;52.228;21.026;2024-03-25T09:24:40;15.23;;;8.10;;
21392;SDS011;10857;52.228;21.026;2024-03-25T09:27:06;10.40;;;7.17;;
21392;SDS011;10857;52.228;21.026;2024-03-25T09:29:32;9.47;;;6.17;;
21392;SDS011;10857;52.228;21.026;2024-03-25T09:31:58;10.37;;;6.23;;
21392;SDS011;10857;52.228;21.026;2024-03-25T09:34:24;10.30;;;6.33;;
21392;SDS011;10857;52.228;21.026;2024-03-25T09:36:50;8.53;;;6.43;;
21392;SDS011;10857;52.228;21.026;2024-03-25T09:39:17;11.53;;;6.60;;
21392;SDS011;10857;52.228;21.026;2024-03-25T09:41:45;15.70;;;6.40;;
21392;SDS011;10857;52.228;21.026;2024-03-25T09:44:13;9.47;;;6.40;;
21392;SDS011;10857;52.228;21.026;2024-03-25T09:46:39;18.77;;;6.47;;
21392;SDS011;10857;52.228;21.026;2024-03-25T09:49:06;13.50;;;6.57;;
21392;SDS011;10857;52.228;21.026;2024-03-25T09:51:33;11.80;;;6.40;;
21392;SDS011;10857;52.228;21.026;2024-03-25T09:53:59;11.70;;;5.67;;
21392;SDS011;10857;52.228;21.026;2024-03-25T09:56:25;14.87;;;5.90;;
21392;SDS011;10857;52.228;21.026;2024-03-25T09:58:52;9.17;;;5.63;;
21392;SDS011;10857;52.228;21.026;2024-03-25T10:01:19;8.33;;;6.00;;
21392;SDS011;10857;52.228;21.026;2024-03-25T10:03:45;12.30;;;5.93;;
21392;SDS011;10857;52.228;21.026;2024-03-25T10:06:11;9.33;;;6.33;;
21392;SDS011;10857;52.228;21.026;2024-03-25T10:08:38;10.57;;;5.97;;
21392;SDS011;10857;52.228;21.026;2024-03-25T10:11:04;9.27;;;5.70;;
21392;SDS011;10857;52.228;21.026;2024-03-25T10:13:30;9.27;;;5.97;;
21392;SDS011;10857;52.228;21.026;2024-03-25T10:15:56;8.83;;;5.53;;
21392;SDS011;10857;52.228;21.026;2024-03-25T10:18:23;7.90;;;5.23;;
21392;SDS011;10857;52.228;21.026;2024-03-25T10:20:50;7.10;;;5.37;;
21392;SDS011;10857;52.228;21.026;2024-03-25T10:23:20;10.40;;;5.90;;
21392;SDS011;10857;52.228;21.026;2024-03-25T10:25:47;8.47;;;5.30;;
21392;SDS011;10857;52.228;21.026;2024-03-25T10:28:13;8.00;;;5.83;;
21392;SDS011;10857;52.228;21.026;2024-03-25T10:30:40;8.87;;;5.40;;
21392;SDS011;10857;52.228;21.026;2024-03-25T10:33:07;8.43;;;5.53;;
21392;SDS011;10857;52.228;21.026;2024-03-25T10:35:38;8.45;;;6.07;;
21392;SDS011;10857;52.228;21.026;2024-03-25T10:38:09;9.33;;;6.40;;
21392;SDS011;10857;52.228;21.026;2024-03-25T10:40:39;7.93;;;5.85;;
21392;SDS011;10857;52.228;21.026;2024-03-25T10:43:09;7.73;;;5.87;;
21392;SDS011;10857;52.228;21.026;2024-03-25T10:45:40;8.60;;;5.33;;
21392;SDS011;10857;52.228;21.026;2024-03-25T10:50:43;10.40;;;5.37;;
21392;SDS011;10857;52.228;21.026;2024-03-25T10:53:12;8.17;;;5.70;;
21392;SDS011;10857;52.228;21.026;2024-03-25T10:55:42;5.63;;;4.37;;
21392;SDS011;10857;52.228;21.026;2024-03-25T10:58:14;6.50;;;4.77;;
21392;SDS011;10857;52.228;21.026;2024-03-25T11:00:42;11.10;;;5.80;;
21392;SDS011;10857;52.228;21.026;2024-03-25T11:03:11;8.93;;;5.20;;
21392;SDS011;10857;52.228;21.026;2024-03-25T11:05:38;8.80;;;4.90;;
21392;SDS011;10857;52.228;21.026;2024-03-25T11:08:11;8.00;;;5.17;;
21392;SDS011;10857;52.228;21.026;2024-03-25T11:10:45;7.37;;;4.90;;
21392;SDS011;10857;52.228;21.026;2024-03-25T11:13:17;7.80;;;4.97;;
21392;SDS011;10857;52.228;21.026;2024-03-25T11:15:47;6.87;;;5.00;;
21392;SDS011;10857;52.228;21.026;2024-03-25T11:18:15;7.33;;;5.20;;
21392;SDS011;10857;52.228;21.026;2024-03-25T11:20:42;8.50;;;5.40;;
21392;SDS011;10857;52.228;21.026;2024-03-25T11:23:12;6.30;;;4.53;;
21392;SDS011;10857;52.228;21.026;2024-03-25T11:25:40;9.90;;;4.73;;
21392;SDS011;10857;52.228;21.026;2024-03-25T11:28:10;6.90;;;4.93;;
21392;SDS011;10857;52.228;21.026;2024-03-25T11:30:37;8.17;;;5.23;;
21392;SDS011;10857;52.228;21.026;2024-03-25T11:33:06;8.13;;;5.00;;
21392;SDS011;10857;52.228;21.026;2024-03-25T11:35:37;6.87;;;4.53;;
21392;SDS011;10857;52.228;21.026;2024-03-25T11:38:03;8.07;;;4.47;;
21392;SDS011;10857;52.228;21.026;2024-03-25T11:40:29;6.47;;;5.10;;
21392;SDS011;10857;52.228;21.026;2024-03-25T11:42:56;8.50;;;5.40;;
21392;SDS011;10857;52.228;21.026;2024-03-25T11:45:22;7.83;;;5.77;;
21392;SDS011;10857;52.228;21.026;2024-03-25T11:47:50;8.60;;;5.43;;
21392;SDS011;10857;52.228;21.026;2024-03-25T11:50:17;8.33;;;5.70;;
21392;SDS011;10857;52.228;21.026;2024-03-25T11:52:44;8.93;;;5.73;;
21392;SDS011;10857;52.228;21.026;2024-03-25T11:55:10;7.63;;;5.40;;
21392;SDS011;10857;52.228;21.026;2024-03-25T11:57:40;9.10;;;5.07;;
21392;SDS011;10857;52.228;21.026;2024-03-25T12:00:07;8.50;;;5.10;;
21392;SDS011;10857;52.228;21.026;2024-03-25T12:02:39;5.40;;;4.40;;
21392;SDS011;10857;52.228;21.026;2024-03-25T12:05:15;8.00;;;4.80;;
21392;SDS011;10857;52.228;21.026;2024-03-25T12:07:42;6.93;;;4.57;;
21392;SDS011;10857;52.228;21.026;2024-03-25T12:10:08;8.60;;;4.97;;
21392;SDS011;10857;52.228;21.026;2024-03-25T12:12:53;6.77;;;4.97;;
21392;SDS011;10857;52.228;21.026;2024-03-25T12:15:20;7.33;;;4.67;;
21392;SDS011;10857;52.228;21.026;2024-03-25T12:17:47;9.07;;;4.73;;
21392;SDS011;10857;52.228;21.026;2024-03-25T12:20:16;7.93;;;5.10;;
21392;SDS011;10857;52.228;21.026;2024-03-25T12:22:43;8.17;;;4.70;;
21392;SDS011;10857;52.228;21.026;2024-03-25T12:25:09;7.43;;;4.67;;
21392;SDS011;10857;52.228;21.026;2024-03-25T12:27:36;8.87;;;5.07;;
21392;SDS011;10857;52.228;21.026;2024-03-25T12:30:09;7.77;;;4.90;;
21392;SDS011;10857;52.228;21.026;2024-03-25T12:32:40;7.23;;;4.77;;
21392;SDS011;10857;52.228;21.026;2024-03-25T12:37:42;7.23;;;4.67;;
21392;SDS011;10857;52.228;21.026;2024-03-25T12:40:11;8.70;;;4.97;;
21392;SDS011;10857;52.228;21.026;2024-03-25T12:42:39;10.37;;;5.47;;
21392;SDS011;10857;52.228;21.026;2024-03-25T12:45:06;9.17;;;5.37;;
21392;SDS011;10857;52.228;21.026;2024-03-25T12:47:32;8.10;;;5.47;;
21392;SDS011;10857;52.228;21.026;2024-03-25T12:49:59;15.60;;;5.93;;
21392;SDS011;10857;52.228;21.026;2024-03-25T12:52:25;9.57;;;4.90;;
21392;SDS011;10857;52.228;21.026;2024-03-25T12:54:51;11.67;;;4.60;;
21392;SDS011;10857;52.228;21.026;2024-03-25T12:57:17;8.17;;;4.60;;
21392;SDS011;10857;52.228;21.026;2024-03-25T12:59:44;8.37;;;4.10;;
21392;SDS011;10857;52.228;21.026;2024-03-25T13:02:11;8.83;;;6.30;;
21392;SDS011;10857;52.228;21.026;2024-03-25T13:04:38;15.07;;;7.70;;
21392;SDS011;10857;52.228;21.026;2024-03-25T13:07:06;13.93;;;7.83;;
21392;SDS011;10857;52.228;21.026;2024-03-25T13:09:32;13.13;;;9.03;;
21392;SDS011;10857;52.228;21.026;2024-03-25T13:11:58;17.03;;;9.33;;
21392;SDS011;10857;52.228;21.026;2024-03-25T13:14:25;13.47;;;9.23;;
21392;SDS011;10857;52.228;21.026;2024-03-25T13:16:51;16.93;;;9.50;;
21392;SDS011;10857;52.228;21.026;2024-03-25T13:19:17;13.53;;;9.60;;
21392;SDS011;10857;52.228;21.026;2024-03-25T13:21:43;13.53;;;9.93;;
21392;SDS011;10857;52.228;21.026;2024-03-25T13:24:09;14.97;;;10.10;;
21392;SDS011;10857;52.228;21.026;2024-03-25T13:26:35;15.33;;;10.77;;
21392;SDS011;10857;52.228;21.026;2024-03-25T13:29:01;15.70;;;10.10;;
21392;SDS011;10857;52.228;21.026;2024-03-25T13:31:27;14.13;;;10.40;;
21392;SDS011;10857;52.228;21.026;2024-03-25T13:33:54;13.87;;;10.13;;
21392;SDS011;10857;52.228;21.026;2024-03-25T13:36:20;14.67;;;10.10;;
21392;SDS011;10857;52.228;21.026;2024-03-25T13:38:46;17.23;;;10.23;;
21392;SDS011;10857;52.228;21.026;2024-03-25T13:41:17;15.93;;;10.70;;
21392;SDS011;10857;52.228;21.026;2024-03-25T13:43:48;18.13;;;10.60;;
21392;SDS011;10857;52.228;21.026;2024-03-25T13:46:16;19.37;;;10.23;;
21392;SDS011;10857;52.228;21.026;2024-03-25T13:48:42;11.93;;;8.63;;
21392;SDS011;10857;52.228;21.026;2024-03-25T13:51:08;13.77;;;9.40;;
21392;SDS011;10857;52.228;21.026;2024-03-25T13:53:34;11.80;;;8.33;;
21392;SDS011;10857;52.228;21.026;2024-03-25T13:56:00;13.60;;;7.90;;
21392;SDS011;10857;52.228;21.026;2024-03-25T13:58:28;11.83;;;8.00;;
21392;SDS011;10857;52.228;21.026;2024-03-25T14:00:54;13.83;;;8.93;;
21392;SDS011;10857;52.228;21.026;2024-03-25T14:03:21;14.63;;;9.03;;
21392;SDS011;10857;52.228;21.026;2024-03-25T14:05:47;11.97;;;9.13;;
21392;SDS011;10857;52.228;21.026;2024-03-25T14:08:13;14.63;;;9.30;;
21392;SDS011;10857;52.228;21.026;2024-03-25T14:10:39;13.60;;;9.70;;
21392;SDS011;10857;52.228;21.026;2024-03-25T14:13:05;14.97;;;9.83;;
21392;SDS011;10857;52.228;21.026;2024-03-25T14:15:31;13.53;;;10.23;;
21392;SDS011;10857;52.228;21.026;2024-03-25T14:17:57;15.50;;;9.90;;
21392;SDS011;10857;52.228;21.026;2024-03-25T14:20:23;12.83;;;9.10;;